Time;durP1;ratioP1;P1;durP2;ratioP2;P2;SDS_P1;SDS_P2;PMS_P1;PMS_P2;Temp;Humidity;BMP_temperature;BMP_pressure;BME280_temperature;BME280_humidity;BME280_pressure;Samples;Min_cycle;Max_cycle;Signal;HPM_P1;HPM_P2
2021/12/25 00:00:51;;;;;;;10.57;9.10;;;4.40;99.90;;;;;;5080286;28;20453;-61
2021/12/25 00:03:18;;;;;;;10.13;8.10;;;4.40;99.90;;;;;;5080458;28;20705;-61
2021/12/25 00:05:47;;;;;;;9.33;8.33;;;4.30;99.90;;;;;;5065367;28;20943;-58
2021/12/25 00:08:15;;;;;;;9.40;8.20;;;4.30;99.90;;;;;;5060158;28;20466;-60
2021/12/25 00:10:42;;;;;;;11.07;9.97;;;4.30;99.90;;;;;;5059079;28;20539;-62
2021/12/25 00:13:09;;;;;;;11.17;9.57;;;4.30;99.90;;;;;;5039992;28;20470;-61
2021/12/25 00:15:36;;;;;;;9.00;8.10;;;4.30;99.90;;;;;;5057388;28;20472;-62
2021/12/25 00:18:05;;;;;;;9.43;8.23;;;4.30;99.90;;;;;;5080096;28;20461;-62
2021/12/25 00:20:35;;;;;;;8.50;7.60;;;4.30;99.90;;;;;;5079272;28;20462;-61
2021/12/25 00:23:06;;;;;;;9.80;7.80;;;4.30;99.90;;;;;;5079400;28;20501;-61
2021/12/25 00:25:36;;;;;;;9.73;8.73;;;4.30;99.90;;;;;;5078189;28;20522;-61
2021/12/25 00:28:20;;;;;;;9.80;8.50;;;4.30;99.90;;;;;;5080108;28;20465;-62
2021/12/25 00:31:02;;;;;;;9.50;8.50;;;4.20;99.90;;;;;;5079059;28;20493;-62
2021/12/25 00:33:37;;;;;;;9.97;8.40;;;4.20;99.90;;;;;;5039878;28;20489;-62
2021/12/25 00:36:05;;;;;;;11.53;9.80;;;4.20;99.90;;;;;;5048271;28;20557;-62
2021/12/25 00:38:32;;;;;;;9.27;8.20;;;4.20;99.90;;;;;;5059189;28;20466;-62
2021/12/25 00:41:02;;;;;;;9.53;8.20;;;4.20;99.90;;;;;;5068844;28;20894;-61
2021/12/25 00:43:31;;;;;;;9.73;8.47;;;4.10;99.90;;;;;;5046396;28;20474;-61
2021/12/25 00:46:04;;;;;;;9.30;8.40;;;4.10;99.90;;;;;;5047617;28;20553;-61
2021/12/25 00:48:35;;;;;;;8.40;7.53;;;4.00;99.90;;;;;;5079371;28;20469;-61
2021/12/25 00:51:05;;;;;;;8.57;7.60;;;3.90;99.90;;;;;;5058287;28;20537;-60
2021/12/25 00:53:33;;;;;;;9.30;7.13;;;3.80;99.90;;;;;;5039137;28;20467;-61
2021/12/25 00:56:01;;;;;;;8.60;7.10;;;3.80;99.90;;;;;;5038873;28;20517;-59
2021/12/25 00:58:27;;;;;;;8.60;7.70;;;3.80;99.90;;;;;;5055219;28;20965;-60
2021/12/25 01:00:55;;;;;;;9.37;8.10;;;3.80;99.90;;;;;;5058124;28;20949;-61
2021/12/25 01:03:22;;;;;;;9.17;8.23;;;3.70;99.90;;;;;;5058766;28;20453;-61
2021/12/25 01:05:50;;;;;;;10.60;8.60;;;3.80;99.90;;;;;;5058661;28;21003;-61
2021/12/25 01:08:19;;;;;;;10.90;9.00;;;3.80;99.90;;;;;;5055428;28;20474;-59
2021/12/25 01:10:49;;;;;;;10.10;8.83;;;3.80;99.90;;;;;;5049153;28;20517;-61
2021/12/25 01:13:23;;;;;;;10.93;9.50;;;3.70;99.90;;;;;;5048403;28;20475;-59
2021/12/25 01:16:01;;;;;;;9.67;7.90;;;3.70;99.90;;;;;;5049929;28;20538;-61
2021/12/25 01:24:23;;;;;;;13.57;10.50;;;3.70;99.90;;;;;;5040852;28;20918;-61
2021/12/25 01:29:53;;;;;;;13.10;11.27;;;3.60;99.90;;;;;;5010057;28;20456;-61
2021/12/25 01:32:56;;;;;;;13.80;11.10;;;3.70;99.90;;;;;;4998934;28;20493;-62
2021/12/25 01:38:22;;;;;;;15.40;11.77;;;3.60;99.90;;;;;;5022040;28;20545;-61
2021/12/25 01:41:01;;;;;;;14.67;11.43;;;3.60;99.90;;;;;;5051281;28;20524;-62
2021/12/25 01:49:07;;;;;;;15.13;11.93;;;3.50;99.90;;;;;;5051958;28;20441;-60
2021/12/25 01:51:37;;;;;;;17.90;13.77;;;3.50;99.90;;;;;;5057757;28;20513;-60
2021/12/25 01:54:08;;;;;;;16.00;12.87;;;3.50;99.90;;;;;;5066758;28;20469;-61
2021/12/25 01:56:36;;;;;;;15.47;13.37;;;3.50;99.90;;;;;;5072699;28;20474;-61
2021/12/25 01:59:04;;;;;;;18.10;15.03;;;3.50;99.90;;;;;;5046430;28;20853;-61
2021/12/25 02:01:33;;;;;;;18.07;14.50;;;3.40;99.90;;;;;;5041089;28;20495;-61
2021/12/25 02:04:03;;;;;;;17.97;14.73;;;3.30;99.90;;;;;;5049527;28;20474;-61
2021/12/25 02:06:35;;;;;;;15.40;13.43;;;3.20;99.90;;;;;;5048095;28;20502;-60
2021/12/25 02:09:09;;;;;;;16.73;14.30;;;3.20;99.90;;;;;;5052758;28;20965;-61
2021/12/25 02:11:43;;;;;;;21.53;15.23;;;3.20;99.90;;;;;;5050713;28;20662;-61
2021/12/25 02:14:10;;;;;;;16.47;14.67;;;3.10;99.90;;;;;;5051404;28;20466;-61
2021/12/25 02:16:51;;;;;;;16.80;14.73;;;3.10;99.90;;;;;;5054279;28;20501;-61
2021/12/25 02:19:33;;;;;;;17.63;14.50;;;3.10;99.90;;;;;;5053681;28;20508;-62
2021/12/25 02:22:03;;;;;;;18.40;14.20;;;3.00;99.90;;;;;;5044479;28;20459;-60
2021/12/25 02:24:31;;;;;;;17.97;14.00;;;3.00;99.90;;;;;;5052253;28;20466;-61
2021/12/25 02:26:58;;;;;;;18.80;16.30;;;2.90;99.90;;;;;;5062307;28;20463;-60
2021/12/25 02:29:25;;;;;;;17.27;14.33;;;2.80;99.90;;;;;;5055323;28;20752;-61
2021/12/25 02:31:53;;;;;;;17.87;15.00;;;2.90;99.90;;;;;;5044354;28;20785;-62
2021/12/25 02:34:20;;;;;;;16.30;14.33;;;2.80;99.90;;;;;;5037211;28;20517;-61
2021/12/25 02:36:47;;;;;;;16.93;15.00;;;2.90;99.90;;;;;;5036905;28;20471;-62
2021/12/25 02:39:19;;;;;;;17.70;14.60;;;2.90;99.90;;;;;;5046349;28;20469;-62
2021/12/25 02:41:47;;;;;;;18.10;14.97;;;2.90;99.90;;;;;;5062753;28;20458;-60
2021/12/25 02:44:16;;;;;;;16.90;14.77;;;2.90;99.90;;;;;;5054855;28;20462;-60
2021/12/25 02:46:48;;;;;;;18.63;14.57;;;2.90;99.90;;;;;;5044325;28;20979;-62
2021/12/25 02:49:16;;;;;;;19.50;15.47;;;2.90;99.90;;;;;;5059372;28;20906;-61
2021/12/25 02:51:44;;;;;;;18.07;13.60;;;2.90;99.90;;;;;;5054062;28;20792;-62
2021/12/25 02:54:13;;;;;;;18.13;14.73;;;2.90;99.90;;;;;;5038948;28;20463;-61
2021/12/25 02:56:42;;;;;;;18.63;15.20;;;2.90;99.90;;;;;;5052519;28;20470;-62
2021/12/25 02:59:12;;;;;;;18.60;15.30;;;2.90;99.90;;;;;;5056746;28;20875;-62
2021/12/25 03:01:40;;;;;;;17.70;14.93;;;2.90;99.90;;;;;;5057100;28;20462;-60
2021/12/25 03:04:07;;;;;;;18.93;16.33;;;2.80;99.90;;;;;;5054384;28;20470;-61
2021/12/25 03:06:36;;;;;;;21.73;17.23;;;2.80;99.90;;;;;;5043167;28;20942;-62
2021/12/25 03:09:06;;;;;;;20.87;16.57;;;2.80;99.90;;;;;;5043210;28;20462;-61
2021/12/25 03:11:34;;;;;;;20.90;16.77;;;2.70;99.90;;;;;;5047117;28;20497;-62
2021/12/25 03:14:13;;;;;;;21.77;17.67;;;2.70;99.90;;;;;;5046852;28;20475;-60
2021/12/25 03:16:40;;;;;;;22.60;17.27;;;2.70;99.90;;;;;;5037717;28;20501;-61
2021/12/25 03:19:16;;;;;;;21.27;17.17;;;2.70;99.90;;;;;;5045635;28;20814;-60
2021/12/25 03:21:43;;;;;;;20.60;17.53;;;2.60;99.90;;;;;;5062125;28;20466;-61
2021/12/25 03:24:10;;;;;;;21.37;17.83;;;2.60;99.90;;;;;;5061563;28;20515;-61
2021/12/25 03:26:37;;;;;;;22.73;18.80;;;2.50;99.90;;;;;;5076852;28;20515;-61
2021/12/25 03:29:08;;;;;;;20.77;17.27;;;2.50;99.90;;;;;;5076962;28;20898;-62
2021/12/25 03:31:37;;;;;;;21.97;17.40;;;2.50;99.90;;;;;;5059283;28;20496;-61
2021/12/25 03:34:04;;;;;;;21.43;17.60;;;2.50;99.90;;;;;;5056624;28;20776;-61
2021/12/25 03:36:34;;;;;;;17.83;15.90;;;2.40;99.90;;;;;;5054737;28;20462;-61
2021/12/25 03:39:01;;;;;;;21.60;17.30;;;2.40;99.90;;;;;;5055170;28;20465;-62
2021/12/25 03:41:28;;;;;;;22.33;18.30;;;2.40;99.90;;;;;;5067278;28;20817;-61
2021/12/25 03:43:57;;;;;;;22.43;18.53;;;2.40;99.90;;;;;;5076753;28;20461;-62
2021/12/25 03:46:25;;;;;;;20.80;17.00;;;2.40;99.90;;;;;;5076110;28;20515;-61
2021/12/25 04:00:00;;;;;;;23.57;19.40;;;2.30;99.90;;;;;;5056428;28;20434;-61
2021/12/25 04:02:35;;;;;;;25.13;19.57;;;2.20;99.90;;;;;;5067850;28;20456;-61
2021/12/25 04:05:04;;;;;;;23.60;18.97;;;2.30;99.90;;;;;;5078423;28;20487;-61
2021/12/25 04:10:27;;;;;;;22.63;17.53;;;2.10;99.90;;;;;;5043692;28;20436;-62
2021/12/25 04:12:54;;;;;;;20.67;18.10;;;2.10;99.90;;;;;;5072374;28;20546;-61
2021/12/25 04:15:22;;;;;;;21.43;19.13;;;2.10;99.90;;;;;;5079956;28;20514;-61
2021/12/25 04:17:50;;;;;;;22.30;18.50;;;2.10;99.90;;;;;;5079731;28;20552;-62
2021/12/25 04:20:18;;;;;;;23.50;18.97;;;2.00;99.90;;;;;;5079746;28;20894;-61
2021/12/25 04:22:50;;;;;;;22.27;17.40;;;2.00;99.90;;;;;;5072195;28;20493;-61
2021/12/25 04:25:22;;;;;;;23.27;19.53;;;1.90;99.90;;;;;;5060483;28;20462;-61
2021/12/25 04:27:51;;;;;;;23.07;17.87;;;1.90;99.90;;;;;;5059840;28;20466;-61
2021/12/25 04:30:30;;;;;;;23.20;18.47;;;1.90;99.90;;;;;;5059595;28;20465;-62
2021/12/25 04:42:31;;;;;;;23.47;18.30;;;1.90;99.90;;;;;;5064410;28;20485;-61
2021/12/25 05:03:42;;;;;;;22.47;19.53;;;1.70;99.90;;;;;;5059130;28;20462;-61
2021/12/25 05:06:11;;;;;;;25.13;21.27;;;1.80;99.90;;;;;;5057899;28;20592;-61
2021/12/25 05:08:38;;;;;;;24.17;19.00;;;1.80;99.90;;;;;;5059202;28;20557;-61
2021/12/25 05:11:06;;;;;;;25.50;20.47;;;1.70;99.90;;;;;;5055395;28;20505;-62
2021/12/25 05:13:33;;;;;;;20.53;17.10;;;1.80;99.90;;;;;;5039478;28;20833;-62
2021/12/25 05:16:02;;;;;;;21.80;19.23;;;1.70;99.90;;;;;;5054449;28;20503;-61
2021/12/25 05:18:30;;;;;;;22.50;18.93;;;1.80;99.90;;;;;;5058926;28;20506;-62
2021/12/25 05:20:57;;;;;;;22.30;18.00;;;1.70;99.90;;;;;;5078363;28;20469;-62
2021/12/25 05:23:25;;;;;;;22.70;18.23;;;1.70;99.90;;;;;;5079169;28;20457;-63
2021/12/25 05:25:52;;;;;;;21.97;18.63;;;1.60;99.90;;;;;;5068302;28;20466;-63
2021/12/25 05:28:24;;;;;;;18.77;16.47;;;1.60;99.90;;;;;;5058514;28;20565;-62
2021/12/25 05:30:52;;;;;;;18.37;16.47;;;1.60;99.90;;;;;;5074085;28;20519;-62
2021/12/25 05:33:20;;;;;;;19.63;16.93;;;1.50;99.90;;;;;;5078772;28;20501;-62
2021/12/25 05:35:47;;;;;;;18.67;15.33;;;1.50;99.90;;;;;;5072424;28;20903;-62
2021/12/25 05:38:17;;;;;;;19.17;16.60;;;1.50;99.90;;;;;;5058520;28;20466;-61
2021/12/25 05:40:53;;;;;;;17.73;15.23;;;1.40;99.90;;;;;;5058434;28;20498;-62
2021/12/25 05:43:20;;;;;;;18.40;14.93;;;1.40;99.90;;;;;;5058315;28;20793;-63
2021/12/25 05:45:47;;;;;;;17.53;14.60;;;1.30;99.90;;;;;;5058303;28;20919;-62
2021/12/25 05:48:14;;;;;;;17.50;15.03;;;1.20;99.90;;;;;;5057469;28;20523;-63
2021/12/25 05:50:42;;;;;;;17.53;12.90;;;1.20;99.90;;;;;;5064575;28;20901;-63
2021/12/25 05:53:09;;;;;;;16.60;13.83;;;1.20;99.90;;;;;;5061459;28;20490;-63
2021/12/25 05:55:36;;;;;;;14.27;12.27;;;1.20;99.90;;;;;;5058567;28;20523;-63
2021/12/25 05:58:07;;;;;;;19.07;13.90;;;1.20;99.90;;;;;;5074236;28;20886;-63
2021/12/25 06:00:36;;;;;;;16.90;13.43;;;1.10;99.90;;;;;;5070246;28;20549;-63
2021/12/25 06:03:03;;;;;;;16.03;13.50;;;1.10;99.90;;;;;;5058052;28;20459;-63
2021/12/25 06:05:31;;;;;;;18.23;13.70;;;1.10;99.90;;;;;;5058096;28;20566;-63
2021/12/25 06:07:58;;;;;;;17.23;13.13;;;1.10;99.90;;;;;;5069651;28;20468;-63
2021/12/25 06:10:25;;;;;;;16.40;13.47;;;1.10;99.90;;;;;;5078098;28;20539;-63
2021/12/25 06:12:55;;;;;;;16.07;13.60;;;1.10;99.90;;;;;;5059030;28;20524;-63
2021/12/25 06:15:24;;;;;;;16.67;13.27;;;1.00;99.90;;;;;;5058257;28;20505;-63
2021/12/25 06:17:52;;;;;;;15.93;12.77;;;1.00;99.90;;;;;;5057748;28;20821;-65
2021/12/25 06:20:19;;;;;;;15.13;12.93;;;1.00;99.90;;;;;;5058003;28;20458;-65
2021/12/25 06:22:46;;;;;;;16.70;13.73;;;1.00;99.90;;;;;;5058697;28;20459;-65
2021/12/25 06:25:15;;;;;;;16.53;13.70;;;1.00;99.90;;;;;;5058056;28;20895;-65
2021/12/25 06:27:42;;;;;;;16.70;12.60;;;1.00;99.90;;;;;;5057870;28;20880;-65
2021/12/25 06:30:11;;;;;;;15.00;13.20;;;0.90;99.90;;;;;;5057300;28;20470;-65
2021/12/25 06:32:39;;;;;;;14.50;12.37;;;0.90;99.90;;;;;;5057363;28;20492;-65
2021/12/25 06:35:10;;;;;;;15.20;11.90;;;0.90;99.90;;;;;;5057307;28;20754;-66
2021/12/25 06:37:37;;;;;;;14.10;11.77;;;0.80;99.90;;;;;;5057556;28;20470;-66
2021/12/25 06:40:05;;;;;;;16.23;13.70;;;0.80;99.90;;;;;;5057721;28;20462;-66
2021/12/25 06:42:35;;;;;;;16.23;13.27;;;0.90;99.90;;;;;;5058387;28;20505;-66
2021/12/25 06:45:02;;;;;;;15.87;13.13;;;0.90;99.90;;;;;;5057660;28;20469;-67
2021/12/25 06:47:30;;;;;;;14.87;12.50;;;0.80;99.90;;;;;;5057458;28;20462;-67
2021/12/25 06:49:58;;;;;;;15.40;12.40;;;0.80;99.90;;;;;;5070081;28;20515;-67
2021/12/25 06:52:28;;;;;;;15.93;12.50;;;0.80;99.90;;;;;;5063978;28;20458;-68
2021/12/25 06:54:55;;;;;;;16.33;12.77;;;0.70;99.90;;;;;;5071729;28;20469;-68
2021/12/25 06:57:22;;;;;;;16.23;13.00;;;0.80;99.90;;;;;;5057302;28;20441;-68
2021/12/25 06:59:49;;;;;;;13.13;11.20;;;0.80;99.90;;;;;;5066137;28;20901;-68
2021/12/25 07:02:19;;;;;;;16.13;13.17;;;0.70;99.90;;;;;;5077479;28;20515;-69
2021/12/25 07:04:46;;;;;;;16.10;13.93;;;0.80;99.90;;;;;;5076943;28;20472;-69
2021/12/25 07:07:16;;;;;;;14.00;12.23;;;0.70;99.90;;;;;;5057207;28;20490;-69
2021/12/25 07:09:43;;;;;;;14.40;12.80;;;0.80;99.90;;;;;;5057598;28;20930;-70
2021/12/25 07:12:10;;;;;;;16.30;13.83;;;0.80;99.90;;;;;;5044073;28;20459;-70
2021/12/25 07:14:37;;;;;;;16.23;12.90;;;0.80;99.90;;;;;;5037401;28;20552;-70
2021/12/25 07:17:07;;;;;;;14.67;12.17;;;0.80;99.90;;;;;;5056434;28;20914;-70
2021/12/25 07:19:34;;;;;;;15.93;12.70;;;0.80;99.90;;;;;;5058094;28;20595;-71
2021/12/25 07:22:03;;;;;;;14.80;12.93;;;0.80;99.90;;;;;;5056754;28;20458;-71
2021/12/25 07:24:31;;;;;;;14.30;11.97;;;0.70;99.90;;;;;;5056809;28;20476;-71
2021/12/25 07:27:03;;;;;;;15.70;13.30;;;0.70;99.90;;;;;;5065982;28;20951;-71
2021/12/25 07:29:30;;;;;;;14.70;12.17;;;0.70;99.90;;;;;;5077295;28;20519;-71
2021/12/25 07:31:57;;;;;;;14.63;12.53;;;0.70;99.90;;;;;;5076777;28;20466;-71
2021/12/25 07:34:24;;;;;;;14.47;12.87;;;0.70;99.90;;;;;;5076559;28;20742;-72
2021/12/25 07:36:51;;;;;;;16.67;13.37;;;0.70;99.90;;;;;;5071683;28;20504;-72
2021/12/25 07:39:18;;;;;;;14.10;12.37;;;0.60;99.90;;;;;;5058843;28;20874;-72
2021/12/25 07:41:47;;;;;;;14.20;12.67;;;0.70;99.90;;;;;;5064950;28;20531;-72
2021/12/25 07:44:14;;;;;;;16.07;13.63;;;0.70;99.90;;;;;;5060587;28;20890;-72
2021/12/25 07:46:42;;;;;;;14.17;12.50;;;0.60;99.90;;;;;;5060735;28;20473;-72
2021/12/25 07:49:18;;;;;;;14.77;12.50;;;0.70;99.90;;;;;;5060687;28;20972;-72
2021/12/25 07:51:47;;;;;;;14.60;13.10;;;0.60;99.90;;;;;;5060154;28;20523;-72
2021/12/25 07:54:15;;;;;;;16.73;14.10;;;0.70;99.90;;;;;;5060426;28;20497;-72
2021/12/25 07:56:43;;;;;;;15.00;12.80;;;0.60;99.90;;;;;;5060619;28;20437;-73
2021/12/25 07:59:12;;;;;;;14.70;12.57;;;0.60;99.90;;;;;;5060443;28;20470;-72
2021/12/25 08:01:39;;;;;;;14.53;12.70;;;0.70;99.90;;;;;;5060741;28;20470;-72
2021/12/25 08:04:09;;;;;;;13.40;11.67;;;0.70;99.90;;;;;;5075046;28;20460;-72
2021/12/25 08:06:37;;;;;;;16.37;12.73;;;0.60;99.90;;;;;;5079391;28;20481;-72
2021/12/25 08:09:07;;;;;;;14.23;11.87;;;0.60;99.90;;;;;;5080335;28;20516;-72
2021/12/25 08:11:37;;;;;;;13.40;11.50;;;0.70;99.90;;;;;;5072721;28;20558;-72
2021/12/25 08:14:04;;;;;;;13.77;12.07;;;0.60;99.90;;;;;;5071484;28;20982;-72
2021/12/25 08:16:33;;;;;;;14.73;13.23;;;0.70;99.90;;;;;;5080567;28;20473;-72
2021/12/25 08:19:02;;;;;;;15.13;11.13;;;0.70;99.90;;;;;;5062553;28;20464;-71
2021/12/25 08:21:29;;;;;;;13.30;11.90;;;0.60;99.90;;;;;;5060205;28;20465;-71
2021/12/25 08:23:58;;;;;;;13.03;11.30;;;0.60;99.90;;;;;;5066841;28;20465;-71
2021/12/25 08:26:25;;;;;;;13.37;11.30;;;0.60;99.90;;;;;;5080055;28;20519;-71
2021/12/25 08:28:55;;;;;;;14.17;12.07;;;0.70;99.90;;;;;;5076917;28;20491;-70
2021/12/25 08:31:27;;;;;;;13.20;11.37;;;0.60;99.90;;;;;;5056576;28;20458;-71
2021/12/25 08:33:56;;;;;;;14.03;12.40;;;0.60;99.90;;;;;;5058317;28;20489;-71
2021/12/25 08:36:23;;;;;;;17.27;13.10;;;0.70;99.90;;;;;;5068407;28;20464;-71
2021/12/25 08:38:53;;;;;;;14.70;13.10;;;0.70;99.90;;;;;;5079040;28;20487;-71
2021/12/25 08:41:21;;;;;;;15.20;12.47;;;0.70;99.90;;;;;;5078619;28;20464;-71
2021/12/25 08:43:49;;;;;;;16.77;13.53;;;0.60;99.90;;;;;;5075604;28;20611;-71
2021/12/25 08:46:35;;;;;;;14.90;12.50;;;0.60;99.90;;;;;;5060978;28;20573;-70
2021/12/25 08:49:03;;;;;;;16.17;13.50;;;0.60;99.90;;;;;;5079487;28;20474;-72
2021/12/25 08:51:31;;;;;;;15.33;13.20;;;0.50;99.90;;;;;;5075505;28;20465;-71
2021/12/25 08:53:59;;;;;;;17.00;13.43;;;0.50;99.90;;;;;;5071678;28;20604;-71
2021/12/25 08:56:28;;;;;;;14.57;13.03;;;0.50;99.90;;;;;;5060248;28;20484;-71
2021/12/25 08:58:55;;;;;;;14.17;11.83;;;0.50;99.90;;;;;;5062479;28;20508;-71
2021/12/25 09:01:25;;;;;;;17.27;12.73;;;0.60;99.90;;;;;;5077829;28;20538;-71
2021/12/25 09:03:56;;;;;;;14.27;12.77;;;0.50;99.90;;;;;;5077504;28;20469;-71
2021/12/25 09:06:25;;;;;;;16.40;12.40;;;0.50;99.90;;;;;;5079307;28;20571;-71
2021/12/25 09:08:53;;;;;;;15.33;12.23;;;0.60;99.90;;;;;;5078089;28;20486;-71
2021/12/25 09:11:21;;;;;;;14.07;12.30;;;0.50;99.90;;;;;;5071216;28;20474;-71
2021/12/25 09:13:51;;;;;;;16.63;12.47;;;0.50;99.90;;;;;;5062618;28;20481;-71
2021/12/25 09:16:18;;;;;;;17.27;13.67;;;0.60;99.90;;;;;;5076660;28;20465;-71
2021/12/25 09:18:46;;;;;;;14.40;12.53;;;0.60;99.90;;;;;;5074056;28;20454;-71
2021/12/25 09:21:14;;;;;;;13.73;11.43;;;0.60;99.90;;;;;;5058594;28;20518;-71
2021/12/25 09:23:43;;;;;;;15.63;12.63;;;0.60;99.90;;;;;;5071605;28;20914;-71
2021/12/25 09:26:11;;;;;;;14.30;11.63;;;0.70;99.90;;;;;;5078126;28;20843;-72
2021/12/25 09:28:38;;;;;;;13.80;11.27;;;0.70;99.90;;;;;;5038206;28;20455;-72
2021/12/25 09:31:06;;;;;;;13.87;11.27;;;0.70;99.90;;;;;;5061407;28;20930;-73
2021/12/25 09:33:35;;;;;;;12.37;10.67;;;0.60;99.90;;;;;;5078301;28;20771;-71
2021/12/25 09:36:03;;;;;;;13.50;11.33;;;0.60;99.90;;;;;;5074744;28;20465;-72
2021/12/25 09:38:30;;;;;;;13.77;11.43;;;0.70;99.90;;;;;;5058656;28;20476;-72
2021/12/25 09:41:00;;;;;;;13.43;11.33;;;0.60;99.90;;;;;;5070295;28;20465;-72
2021/12/25 09:43:27;;;;;;;12.73;10.53;;;0.70;99.90;;;;;;5078866;28;20465;-72
2021/12/25 09:45:56;;;;;;;12.17;10.57;;;0.60;99.90;;;;;;5059565;28;20896;-72
2021/12/25 09:48:25;;;;;;;12.87;10.00;;;0.60;99.90;;;;;;5057333;28;20453;-72
2021/12/25 09:50:54;;;;;;;11.87;10.50;;;0.60;99.90;;;;;;5057909;28;20469;-72
2021/12/25 09:53:26;;;;;;;14.93;11.23;;;0.60;99.90;;;;;;5057512;28;20437;-72
2021/12/25 09:55:58;;;;;;;11.33;9.23;;;0.60;99.90;;;;;;5057469;28;20458;-72
2021/12/25 09:58:26;;;;;;;10.97;9.50;;;0.60;99.90;;;;;;5060217;28;20462;-72
2021/12/25 10:00:57;;;;;;;11.50;10.07;;;0.50;99.90;;;;;;5059121;28;20459;-72
2021/12/25 10:03:27;;;;;;;11.30;9.77;;;0.50;99.90;;;;;;5057008;28;20517;-72
2021/12/25 10:05:56;;;;;;;10.27;9.27;;;0.60;99.90;;;;;;5060304;28;20999;-71
2021/12/25 10:08:26;;;;;;;18.63;10.37;;;0.50;99.90;;;;;;5057260;28;20458;-72
2021/12/25 10:10:56;;;;;;;12.13;10.33;;;0.60;99.90;;;;;;5057788;28;20473;-72
2021/12/25 10:13:36;;;;;;;12.70;9.73;;;0.50;99.90;;;;;;5057415;28;20560;-72
2021/12/25 10:16:20;;;;;;;13.33;9.40;;;0.60;99.90;;;;;;5056067;28;20458;-72
2021/12/25 10:18:48;;;;;;;11.80;10.53;;;0.60;99.90;;;;;;5056605;28;20779;-71
2021/12/25 10:21:20;;;;;;;11.40;10.20;;;0.70;99.90;;;;;;5054654;28;20450;-71
2021/12/25 10:24:05;;;;;;;11.00;9.80;;;0.70;99.90;;;;;;5057140;28;20512;-71
2021/12/25 10:26:33;;;;;;;10.13;8.87;;;0.60;99.90;;;;;;5056465;28;20458;-72
2021/12/25 10:29:15;;;;;;;10.40;8.40;;;0.60;99.90;;;;;;5057955;28;20797;-71
2021/12/25 10:31:42;;;;;;;13.90;10.70;;;0.60;99.90;;;;;;5055266;28;20461;-72
2021/12/25 10:34:14;;;;;;;12.53;9.60;;;0.50;99.90;;;;;;5056444;28;20620;-71
2021/12/25 10:36:42;;;;;;;12.60;9.67;;;0.40;99.90;;;;;;5057958;28;20465;-71
2021/12/25 10:39:15;;;;;;;10.60;9.50;;;0.40;99.90;;;;;;5056957;28;20523;-71
2021/12/25 10:41:52;;;;;;;8.97;8.07;;;0.50;99.90;;;;;;5057624;28;20511;-71
2021/12/25 10:44:23;;;;;;;9.90;7.27;;;0.40;99.90;;;;;;5055194;28;20462;-71
2021/12/25 10:46:54;;;;;;;8.77;7.80;;;0.40;99.90;;;;;;5057476;28;20981;-70
2021/12/25 10:49:23;;;;;;;13.77;9.23;;;0.40;99.90;;;;;;5056950;28;20469;-70
2021/12/25 10:51:50;;;;;;;12.60;10.23;;;0.40;99.90;;;;;;5057212;28;20942;-70
2021/12/25 10:54:18;;;;;;;10.40;8.60;;;0.40;99.90;;;;;;5057274;28;20493;-70
2021/12/25 10:56:47;;;;;;;8.90;6.73;;;0.40;99.90;;;;;;5059659;28;20457;-70
2021/12/25 10:59:17;;;;;;;7.97;6.87;;;0.40;99.90;;;;;;5052479;28;20463;-69
2021/12/25 11:01:51;;;;;;;9.23;7.27;;;0.30;99.90;;;;;;5060883;28;20819;-70
2021/12/25 11:04:30;;;;;;;7.77;6.97;;;0.20;99.90;;;;;;5055514;28;20469;-70
2021/12/25 11:06:59;;;;;;;8.10;6.60;;;0.30;99.90;;;;;;5056027;28;20500;-69
2021/12/25 11:09:26;;;;;;;7.30;6.20;;;0.20;99.90;;;;;;5057325;28;20458;-69
2021/12/25 11:12:16;;;;;;;8.33;7.47;;;0.20;99.90;;;;;;5056181;28;20520;-69
2021/12/25 11:14:43;;;;;;;9.13;7.30;;;0.10;99.90;;;;;;5059183;28;20499;-69
2021/12/25 11:17:27;;;;;;;8.10;6.80;;;0.10;99.90;;;;;;5060915;28;20476;-69
2021/12/25 11:20:02;;;;;;;7.43;5.93;;;0.10;99.90;;;;;;5061455;28;20469;-69
2021/12/25 11:22:49;;;;;;;7.13;6.27;;;0.10;99.90;;;;;;5070934;28;20517;-69
2021/12/25 11:25:17;;;;;;;7.73;6.53;;;0.20;99.90;;;;;;5063797;28;20469;-69
2021/12/25 11:27:47;;;;;;;7.57;6.67;;;0.20;99.90;;;;;;5060467;28;20951;-69
2021/12/25 11:30:18;;;;;;;8.00;6.73;;;0.30;99.90;;;;;;5059599;28;20465;-69
2021/12/25 11:32:47;;;;;;;7.07;6.20;;;0.20;99.90;;;;;;5058070;28;20844;-69
2021/12/25 11:35:18;;;;;;;7.37;5.87;;;0.20;99.90;;;;;;5059027;28;20849;-69
2021/12/25 11:37:47;;;;;;;10.63;6.90;;;0.10;99.90;;;;;;5059982;28;20469;-68
2021/12/25 11:40:22;;;;;;;9.03;6.87;;;0.20;99.90;;;;;;5060478;28;20468;-69
2021/12/25 11:42:54;;;;;;;6.93;6.27;;;0.20;99.90;;;;;;5073103;28;20437;-69
2021/12/25 11:45:25;;;;;;;7.33;5.97;;;0.30;99.90;;;;;;5061175;28;20473;-69
2021/12/25 11:47:56;;;;;;;7.50;6.20;;;0.20;99.90;;;;;;5060496;28;20910;-68
2021/12/25 11:50:34;;;;;;;6.63;5.60;;;0.20;99.90;;;;;;5060279;28;20534;-68
2021/12/25 11:53:09;;;;;;;7.57;5.67;;;0.30;99.90;;;;;;5057223;28;20460;-69
2021/12/25 11:58:43;;;;;;;8.30;5.33;;;0.20;99.90;;;;;;5039521;28;20894;-68
2021/12/25 12:01:22;;;;;;;9.63;5.33;;;0.10;99.90;;;;;;5080423;28;20469;-68
2021/12/25 12:03:54;;;;;;;6.00;5.10;;;0.20;99.90;;;;;;5074408;28;20519;-68
2021/12/25 12:06:37;;;;;;;7.63;6.53;;;0.20;99.90;;;;;;5060037;28;20515;-68
2021/12/25 12:09:10;;;;;;;6.23;5.53;;;0.20;99.90;;;;;;5059837;28;20803;-68
2021/12/25 12:11:40;;;;;;;6.17;5.57;;;0.30;99.90;;;;;;5058176;28;20597;-68
2021/12/25 12:14:19;;;;;;;6.93;5.50;;;0.20;99.90;;;;;;5043395;28;20461;-67
2021/12/25 12:16:48;;;;;;;6.90;5.90;;;0.10;99.90;;;;;;5059483;28;20474;-68
2021/12/25 12:19:50;;;;;;;6.30;5.27;;;0.10;99.90;;;;;;5059633;28;20462;-68
2021/12/25 12:22:51;;;;;;;7.27;5.40;;;0.20;99.90;;;;;;5075786;28;20554;-68
2021/12/25 12:25:25;;;;;;;4.97;4.47;;;0.10;99.90;;;;;;5078881;28;20468;-67
2021/12/25 12:27:55;;;;;;;5.67;5.10;;;0.20;99.90;;;;;;5073415;28;20464;-67
2021/12/25 12:30:52;;;;;;;5.63;5.07;;;0.10;99.90;;;;;;5059753;28;20462;-67
2021/12/25 12:33:34;;;;;;;5.90;5.40;;;0.20;99.90;;;;;;4979318;28;20524;-67
2021/12/25 12:36:05;;;;;;;5.47;4.90;;;0.20;99.90;;;;;;5043397;28;20532;-67
2021/12/25 12:38:40;;;;;;;5.83;5.23;;;0.20;99.90;;;;;;5059727;28;20727;-67
2021/12/25 12:41:27;;;;;;;5.53;4.67;;;0.30;99.90;;;;;;5060072;28;20461;-67
2021/12/25 12:44:04;;;;;;;5.63;4.90;;;0.20;99.90;;;;;;5058843;28;20481;-67
2021/12/25 12:47:08;;;;;;;5.57;4.37;;;0.30;99.90;;;;;;5058883;28;20477;-67
2021/12/25 12:49:59;;;;;;;7.57;5.00;;;0.20;99.90;;;;;;5059110;28;20519;-67
2021/12/25 12:52:38;;;;;;;6.40;5.40;;;0.20;99.90;;;;;;5059274;28;20470;-66
2021/12/25 12:55:09;;;;;;;5.37;4.87;;;0.30;99.90;;;;;;5066873;28;20956;-67
2021/12/25 12:57:38;;;;;;;8.23;4.70;;;0.30;99.90;;;;;;5069557;28;20437;-66
2021/12/25 13:00:13;;;;;;;5.60;4.30;;;0.30;99.90;;;;;;5061230;28;20465;-67
2021/12/25 13:02:42;;;;;;;6.23;4.83;;;0.30;99.90;;;;;;5059221;28;20900;-67
2021/12/25 13:05:10;;;;;;;6.63;5.27;;;0.30;99.90;;;;;;5056640;28;20572;-67
2021/12/25 13:07:44;;;;;;;5.00;4.50;;;0.30;99.90;;;;;;5059627;28;20490;-67
2021/12/25 13:10:18;;;;;;;5.80;4.43;;;0.30;99.90;;;;;;5056201;28;20470;-67
2021/12/25 13:12:47;;;;;;;5.73;4.63;;;0.40;99.90;;;;;;5059067;28;20777;-67
2021/12/25 13:15:17;;;;;;;6.07;4.30;;;0.30;99.90;;;;;;5058585;28;20494;-66
2021/12/25 13:17:50;;;;;;;5.93;4.67;;;0.30;99.90;;;;;;5059117;28;20465;-67
2021/12/25 13:20:17;;;;;;;6.80;4.90;;;0.30;99.90;;;;;;5058253;28;20460;-66
2021/12/25 13:22:59;;;;;;;5.10;4.30;;;0.30;99.90;;;;;;5058376;28;20511;-66
2021/12/25 13:25:29;;;;;;;5.90;4.50;;;0.30;99.90;;;;;;5055522;28;20962;-66
2021/12/25 13:27:58;;;;;;;5.67;4.40;;;0.30;99.90;;;;;;5058020;28;20459;-66
2021/12/25 13:30:27;;;;;;;4.90;4.00;;;0.40;99.90;;;;;;5057920;28;20902;-66
2021/12/25 13:32:54;;;;;;;4.50;4.07;;;0.30;99.90;;;;;;5058407;28;20812;-66
2021/12/25 13:35:24;;;;;;;4.87;4.30;;;0.30;99.90;;;;;;5057065;28;20965;-66
2021/12/25 13:38:04;;;;;;;5.70;4.10;;;0.30;99.90;;;;;;5057067;28;20466;-66
2021/12/25 13:40:33;;;;;;;4.90;3.93;;;0.20;99.90;;;;;;5057446;28;20465;-66
2021/12/25 13:43:08;;;;;;;4.90;4.10;;;0.20;99.90;;;;;;5058095;28;20468;-66
2021/12/25 13:45:39;;;;;;;4.77;4.17;;;0.20;99.90;;;;;;5056114;28;20471;-65
2021/12/25 13:48:07;;;;;;;5.50;4.10;;;0.20;99.90;;;;;;5054788;28;20483;-66
2021/12/25 13:50:35;;;;;;;4.67;4.17;;;0.20;99.90;;;;;;5058609;28;20468;-66
2021/12/25 13:53:14;;;;;;;4.73;4.27;;;0.20;99.90;;;;;;5059036;28;20461;-65
2021/12/25 13:55:42;;;;;;;9.17;4.90;;;0.10;99.90;;;;;;5057475;28;20845;-65
2021/12/25 13:58:15;;;;;;;4.40;4.00;;;0.30;99.90;;;;;;5057781;28;20911;-65
2021/12/25 14:00:46;;;;;;;4.70;4.17;;;0.20;99.90;;;;;;5057230;28;20918;-65
2021/12/25 14:03:16;;;;;;;6.00;4.27;;;0.20;99.90;;;;;;5057919;28;20476;-65